sensor_id;sensor_type;location;lat;lon;timestamp;P1;durP1;ratioP1;P2;durP2;ratioP2
2390;SDS011;22957;50.824;4.360;2023-05-19T00:00:05;12.27;;;4.20;;
2390;SDS011;22957;50.824;4.360;2023-05-19T00:02:33;16.53;;;4.97;;
2390;SDS011;22957;50.824;4.360;2023-05-19T00:05:02;19.73;;;6.77;;
2390;SDS011;22957;50.824;4.360;2023-05-19T00:07:29;12.67;;;5.50;;
2390;SDS011;22957;50.824;4.360;2023-05-19T00:09:56;13.83;;;5.80;;
2390;SDS011;22957;50.824;4.360;2023-05-19T00:12:22;11.40;;;4.33;;
2390;SDS011;22957;50.824;4.360;2023-05-19T00:14:48;13.47;;;5.50;;
2390;SDS011;22957;50.824;4.360;2023-05-19T00:17:14;9.07;;;5.13;;
2390;SDS011;22957;50.824;4.360;2023-05-19T00:19:40;10.43;;;5.20;;
2390;SDS011;22957;50.824;4.360;2023-05-19T00:22:09;7.70;;;4.60;;
2390;SDS011;22957;50.824;4.360;2023-05-19T00:24:35;9.17;;;4.97;;
2390;SDS011;22957;50.824;4.360;2023-05-19T00:27:00;12.33;;;5.77;;
2390;SDS011;22957;50.824;4.360;2023-05-19T00:29:26;9.60;;;5.53;;
2390;SDS011;22957;50.824;4.360;2023-05-19T00:31:52;6.93;;;4.87;;
2390;SDS011;22957;50.824;4.360;2023-05-19T00:34:18;10.13;;;4.83;;
2390;SDS011;22957;50.824;4.360;2023-05-19T00:36:44;17.27;;;5.80;;
2390;SDS011;22957;50.824;4.360;2023-05-19T00:39:09;14.97;;;6.87;;
2390;SDS011;22957;50.824;4.360;2023-05-19T00:41:35;11.50;;;5.37;;
2390;SDS011;22957;50.824;4.360;2023-05-19T00:44:01;13.77;;;5.90;;
2390;SDS011;22957;50.824;4.360;2023-05-19T00:46:26;15.53;;;6.20;;
2390;SDS011;22957;50.824;4.360;2023-05-19T00:48:52;7.90;;;5.67;;
2390;SDS011;22957;50.824;4.360;2023-05-19T00:51:17;13.07;;;6.43;;
2390;SDS011;22957;50.824;4.360;2023-05-19T00:53:43;7.70;;;6.30;;
2390;SDS011;22957;50.824;4.360;2023-05-19T00:56:13;15.50;;;6.60;;
2390;SDS011;22957;50.824;4.360;2023-05-19T00:58:40;14.83;;;6.00;;
2390;SDS011;22957;50.824;4.360;2023-05-19T01:01:06;15.53;;;6.20;;
2390;SDS011;22957;50.824;4.360;2023-05-19T01:03:33;16.20;;;7.40;;
2390;SDS011;22957;50.824;4.360;2023-05-19T01:06:00;14.33;;;5.97;;
2390;SDS011;22957;50.824;4.360;2023-05-19T01:08:29;8.63;;;6.30;;
2390;SDS011;22957;50.824;4.360;2023-05-19T01:10:56;8.43;;;5.87;;
2390;SDS011;22957;50.824;4.360;2023-05-19T01:13:23;11.37;;;5.30;;
2390;SDS011;22957;50.824;4.360;2023-05-19T01:15:57;11.73;;;4.87;;
2390;SDS011;22957;50.824;4.360;2023-05-19T01:21:35;11.70;;;6.43;;
2390;SDS011;22957;50.824;4.360;2023-05-19T01:32:59;12.17;;;5.80;;
2390;SDS011;22957;50.824;4.360;2023-05-19T01:35:26;15.23;;;5.37;;
2390;SDS011;22957;50.824;4.360;2023-05-19T01:37:54;10.07;;;5.60;;
2390;SDS011;22957;50.824;4.360;2023-05-19T01:40:24;12.50;;;6.27;;
2390;SDS011;22957;50.824;4.360;2023-05-19T01:42:52;16.60;;;6.80;;
2390;SDS011;22957;50.824;4.360;2023-05-19T01:45:20;16.40;;;7.67;;
2390;SDS011;22957;50.824;4.360;2023-05-19T01:47:48;10.63;;;6.57;;
2390;SDS011;22957;50.824;4.360;2023-05-19T01:50:15;18.13;;;7.07;;
2390;SDS011;22957;50.824;4.360;2023-05-19T01:52:41;11.00;;;6.13;;
2390;SDS011;22957;50.824;4.360;2023-05-19T01:55:07;11.33;;;6.90;;
2390;SDS011;22957;50.824;4.360;2023-05-19T01:57:41;12.40;;;6.93;;
2390;SDS011;22957;50.824;4.360;2023-05-19T02:03:28;9.93;;;6.00;;
2390;SDS011;22957;50.824;4.360;2023-05-19T02:14:02;15.00;;;6.63;;
2390;SDS011;22957;50.824;4.360;2023-05-19T02:16:56;19.43;;;6.60;;
2390;SDS011;22957;50.824;4.360;2023-05-19T02:19:24;12.37;;;5.60;;
2390;SDS011;22957;50.824;4.360;2023-05-19T02:21:55;10.20;;;5.73;;
2390;SDS011;22957;50.824;4.360;2023-05-19T02:24:21;9.30;;;6.53;;
2390;SDS011;22957;50.824;4.360;2023-05-19T02:26:48;12.27;;;6.47;;
2390;SDS011;22957;50.824;4.360;2023-05-19T02:29:17;9.03;;;6.20;;
2390;SDS011;22957;50.824;4.360;2023-05-19T02:31:46;11.80;;;6.60;;
2390;SDS011;22957;50.824;4.360;2023-05-19T02:34:12;16.67;;;6.90;;
2390;SDS011;22957;50.824;4.360;2023-05-19T02:36:38;10.03;;;6.40;;
2390;SDS011;22957;50.824;4.360;2023-05-19T02:39:05;10.40;;;6.87;;
2390;SDS011;22957;50.824;4.360;2023-05-19T02:41:31;13.83;;;8.13;;
2390;SDS011;22957;50.824;4.360;2023-05-19T02:43:56;12.90;;;7.00;;
2390;SDS011;22957;50.824;4.360;2023-05-19T02:46:22;10.33;;;6.80;;
2390;SDS011;22957;50.824;4.360;2023-05-19T02:48:49;15.80;;;8.40;;
2390;SDS011;22957;50.824;4.360;2023-05-19T02:51:15;15.63;;;8.60;;
2390;SDS011;22957;50.824;4.360;2023-05-19T02:53:40;14.43;;;6.73;;
2390;SDS011;22957;50.824;4.360;2023-05-19T02:56:06;10.70;;;7.77;;
2390;SDS011;22957;50.824;4.360;2023-05-19T02:58:31;16.17;;;8.03;;
2390;SDS011;22957;50.824;4.360;2023-05-19T03:00:57;15.90;;;6.97;;
2390;SDS011;22957;50.824;4.360;2023-05-19T03:03:23;14.90;;;7.40;;
2390;SDS011;22957;50.824;4.360;2023-05-19T03:05:49;21.33;;;8.47;;
2390;SDS011;22957;50.824;4.360;2023-05-19T03:08:14;19.07;;;9.17;;
2390;SDS011;22957;50.824;4.360;2023-05-19T03:10:40;13.43;;;7.57;;
2390;SDS011;22957;50.824;4.360;2023-05-19T03:13:05;15.80;;;8.60;;
2390;SDS011;22957;50.824;4.360;2023-05-19T03:15:31;17.27;;;9.10;;
2390;SDS011;22957;50.824;4.360;2023-05-19T03:17:57;13.10;;;8.40;;
2390;SDS011;22957;50.824;4.360;2023-05-19T03:20:23;17.70;;;7.80;;
2390;SDS011;22957;50.824;4.360;2023-05-19T03:22:48;10.77;;;7.43;;
2390;SDS011;22957;50.824;4.360;2023-05-19T03:25:14;17.57;;;8.97;;
2390;SDS011;22957;50.824;4.360;2023-05-19T03:27:40;16.90;;;8.17;;
2390;SDS011;22957;50.824;4.360;2023-05-19T03:30:06;12.83;;;7.70;;
2390;SDS011;22957;50.824;4.360;2023-05-19T03:32:33;15.37;;;8.00;;
2390;SDS011;22957;50.824;4.360;2023-05-19T03:35:01;13.03;;;8.50;;
2390;SDS011;22957;50.824;4.360;2023-05-19T03:37:30;11.90;;;8.90;;
2390;SDS011;22957;50.824;4.360;2023-05-19T03:39:59;15.43;;;7.33;;
2390;SDS011;22957;50.824;4.360;2023-05-19T03:42:25;12.67;;;8.20;;
2390;SDS011;22957;50.824;4.360;2023-05-19T03:44:50;18.63;;;10.43;;
2390;SDS011;22957;50.824;4.360;2023-05-19T03:47:16;12.73;;;9.33;;
2390;SDS011;22957;50.824;4.360;2023-05-19T03:49:42;17.20;;;9.50;;
2390;SDS011;22957;50.824;4.360;2023-05-19T03:52:08;16.20;;;9.90;;
2390;SDS011;22957;50.824;4.360;2023-05-19T03:54:33;14.30;;;9.30;;
2390;SDS011;22957;50.824;4.360;2023-05-19T03:56:59;18.30;;;9.70;;
2390;SDS011;22957;50.824;4.360;2023-05-19T03:59:26;17.00;;;10.20;;
2390;SDS011;22957;50.824;4.360;2023-05-19T04:01:52;13.90;;;9.20;;
2390;SDS011;22957;50.824;4.360;2023-05-19T04:04:17;14.77;;;10.10;;
2390;SDS011;22957;50.824;4.360;2023-05-19T04:06:43;15.60;;;9.13;;
2390;SDS011;22957;50.824;4.360;2023-05-19T04:09:13;14.30;;;9.60;;
2390;SDS011;22957;50.824;4.360;2023-05-19T04:11:40;13.87;;;7.83;;
2390;SDS011;22957;50.824;4.360;2023-05-19T04:14:06;17.00;;;8.93;;
2390;SDS011;22957;50.824;4.360;2023-05-19T04:16:32;17.37;;;10.10;;
2390;SDS011;22957;50.824;4.360;2023-05-19T04:18:58;15.90;;;9.73;;
2390;SDS011;22957;50.824;4.360;2023-05-19T04:21:24;27.23;;;9.93;;
2390;SDS011;22957;50.824;4.360;2023-05-19T04:23:50;18.33;;;8.83;;
2390;SDS011;22957;50.824;4.360;2023-05-19T04:26:15;18.90;;;9.93;;
2390;SDS011;22957;50.824;4.360;2023-05-19T04:28:42;16.00;;;9.20;;
2390;SDS011;22957;50.824;4.360;2023-05-19T04:31:08;22.30;;;8.50;;
2390;SDS011;22957;50.824;4.360;2023-05-19T04:33:36;17.57;;;9.10;;
2390;SDS011;22957;50.824;4.360;2023-05-19T04:36:02;17.10;;;8.93;;
2390;SDS011;22957;50.824;4.360;2023-05-19T04:38:32;23.73;;;9.53;;
2390;SDS011;22957;50.824;4.360;2023-05-19T04:40:58;17.57;;;9.77;;
2390;SDS011;22957;50.824;4.360;2023-05-19T04:43:25;16.60;;;10.23;;
2390;SDS011;22957;50.824;4.360;2023-05-19T04:45:52;20.30;;;9.50;;
2390;SDS011;22957;50.824;4.360;2023-05-19T04:48:18;15.70;;;9.30;;
2390;SDS011;22957;50.824;4.360;2023-05-19T04:50:47;14.47;;;8.97;;
2390;SDS011;22957;50.824;4.360;2023-05-19T04:53:16;13.50;;;8.70;;
2390;SDS011;22957;50.824;4.360;2023-05-19T04:55:42;20.37;;;9.83;;
2390;SDS011;22957;50.824;4.360;2023-05-19T04:58:09;16.37;;;8.80;;
2390;SDS011;22957;50.824;4.360;2023-05-19T05:00:37;19.40;;;9.60;;
2390;SDS011;22957;50.824;4.360;2023-05-19T05:03:03;12.40;;;9.37;;
2390;SDS011;22957;50.824;4.360;2023-05-19T05:05:30;17.73;;;9.50;;
2390;SDS011;22957;50.824;4.360;2023-05-19T05:07:56;17.70;;;8.20;;
2390;SDS011;22957;50.824;4.360;2023-05-19T05:10:22;17.97;;;9.53;;
2390;SDS011;22957;50.824;4.360;2023-05-19T05:12:48;17.03;;;9.73;;
2390;SDS011;22957;50.824;4.360;2023-05-19T05:15:14;20.90;;;11.20;;
2390;SDS011;22957;50.824;4.360;2023-05-19T05:17:40;12.30;;;8.57;;
2390;SDS011;22957;50.824;4.360;2023-05-19T05:20:07;12.10;;;9.17;;
2390;SDS011;22957;50.824;4.360;2023-05-19T05:22:34;16.67;;;9.30;;
2390;SDS011;22957;50.824;4.360;2023-05-19T05:25:00;13.50;;;8.20;;
2390;SDS011;22957;50.824;4.360;2023-05-19T05:27:27;14.77;;;9.37;;
2390;SDS011;22957;50.824;4.360;2023-05-19T05:29:53;11.13;;;8.00;;
2390;SDS011;22957;50.824;4.360;2023-05-19T05:32:18;15.20;;;7.60;;
2390;SDS011;22957;50.824;4.360;2023-05-19T05:34:44;11.50;;;8.17;;
2390;SDS011;22957;50.824;4.360;2023-05-19T05:37:10;12.63;;;8.33;;
2390;SDS011;22957;50.824;4.360;2023-05-19T05:39:35;11.47;;;8.10;;
2390;SDS011;22957;50.824;4.360;2023-05-19T05:42:01;13.63;;;9.00;;
2390;SDS011;22957;50.824;4.360;2023-05-19T05:44:27;17.30;;;9.43;;
2390;SDS011;22957;50.824;4.360;2023-05-19T05:46:53;17.97;;;10.10;;
2390;SDS011;22957;50.824;4.360;2023-05-19T05:49:19;17.30;;;9.20;;
2390;SDS011;22957;50.824;4.360;2023-05-19T05:51:45;19.07;;;8.90;;
2390;SDS011;22957;50.824;4.360;2023-05-19T05:54:11;17.40;;;8.87;;
2390;SDS011;22957;50.824;4.360;2023-05-19T05:56:37;12.00;;;8.33;;
2390;SDS011;22957;50.824;4.360;2023-05-19T05:59:03;16.00;;;8.50;;
2390;SDS011;22957;50.824;4.360;2023-05-19T06:01:29;14.10;;;8.57;;
2390;SDS011;22957;50.824;4.360;2023-05-19T06:03:55;19.97;;;8.63;;
2390;SDS011;22957;50.824;4.360;2023-05-19T06:06:21;13.17;;;8.00;;
2390;SDS011;22957;50.824;4.360;2023-05-19T06:08:46;22.73;;;9.30;;
2390;SDS011;22957;50.824;4.360;2023-05-19T06:11:12;15.23;;;10.03;;
2390;SDS011;22957;50.824;4.360;2023-05-19T06:13:38;14.90;;;9.63;;
2390;SDS011;22957;50.824;4.360;2023-05-19T06:16:05;15.97;;;8.67;;
2390;SDS011;22957;50.824;4.360;2023-05-19T06:18:31;16.87;;;10.00;;
2390;SDS011;22957;50.824;4.360;2023-05-19T06:20:57;17.20;;;11.33;;
2390;SDS011;22957;50.824;4.360;2023-05-19T06:23:22;13.90;;;9.30;;
2390;SDS011;22957;50.824;4.360;2023-05-19T06:25:49;13.37;;;8.40;;
2390;SDS011;22957;50.824;4.360;2023-05-19T06:28:14;13.13;;;8.57;;
2390;SDS011;22957;50.824;4.360;2023-05-19T06:30:40;17.20;;;8.50;;
2390;SDS011;22957;50.824;4.360;2023-05-19T06:33:06;13.97;;;8.17;;
2390;SDS011;22957;50.824;4.360;2023-05-19T06:35:32;12.50;;;8.70;;
2390;SDS011;22957;50.824;4.360;2023-05-19T06:37:57;12.00;;;8.40;;
2390;SDS011;22957;50.824;4.360;2023-05-19T06:40:23;14.13;;;9.50;;
2390;SDS011;22957;50.824;4.360;2023-05-19T06:42:49;20.40;;;8.53;;
2390;SDS011;22957;50.824;4.360;2023-05-19T06:45:14;15.47;;;8.87;;
2390;SDS011;22957;50.824;4.360;2023-05-19T06:47:40;16.57;;;7.57;;
2390;SDS011;22957;50.824;4.360;2023-05-19T06:50:07;17.43;;;9.37;;
2390;SDS011;22957;50.824;4.360;2023-05-19T06:52:33;15.57;;;9.20;;
2390;SDS011;22957;50.824;4.360;2023-05-19T06:54:59;17.87;;;9.33;;
2390;SDS011;22957;50.824;4.360;2023-05-19T06:57:25;22.10;;;8.63;;
2390;SDS011;22957;50.824;4.360;2023-05-19T06:59:51;15.93;;;8.03;;
2390;SDS011;22957;50.824;4.360;2023-05-19T07:02:16;16.97;;;8.50;;
2390;SDS011;22957;50.824;4.360;2023-05-19T07:04:42;12.93;;;8.77;;
2390;SDS011;22957;50.824;4.360;2023-05-19T07:07:07;14.90;;;8.83;;
2390;SDS011;22957;50.824;4.360;2023-05-19T07:09:33;14.23;;;7.00;;
2390;SDS011;22957;50.824;4.360;2023-05-19T07:11:59;15.43;;;7.63;;
2390;SDS011;22957;50.824;4.360;2023-05-19T07:14:25;11.90;;;7.73;;
2390;SDS011;22957;50.824;4.360;2023-05-19T07:16:51;12.97;;;7.70;;
2390;SDS011;22957;50.824;4.360;2023-05-19T07:19:17;13.47;;;7.43;;
2390;SDS011;22957;50.824;4.360;2023-05-19T07:21:44;15.63;;;7.77;;
2390;SDS011;22957;50.824;4.360;2023-05-19T07:24:10;12.60;;;7.10;;
2390;SDS011;22957;50.824;4.360;2023-05-19T07:26:35;11.47;;;7.37;;
2390;SDS011;22957;50.824;4.360;2023-05-19T07:29:01;11.17;;;7.70;;
2390;SDS011;22957;50.824;4.360;2023-05-19T07:31:26;15.33;;;8.60;;
2390;SDS011;22957;50.824;4.360;2023-05-19T07:33:52;16.00;;;8.77;;
2390;SDS011;22957;50.824;4.360;2023-05-19T07:36:18;12.70;;;7.53;;
2390;SDS011;22957;50.824;4.360;2023-05-19T07:38:44;14.03;;;6.90;;
2390;SDS011;22957;50.824;4.360;2023-05-19T07:41:11;24.00;;;9.30;;
2390;SDS011;22957;50.824;4.360;2023-05-19T07:43:36;14.57;;;7.60;;
2390;SDS011;22957;50.824;4.360;2023-05-19T07:46:02;13.93;;;8.97;;
2390;SDS011;22957;50.824;4.360;2023-05-19T07:48:28;13.67;;;8.40;;
2390;SDS011;22957;50.824;4.360;2023-05-19T07:50:53;13.93;;;7.00;;
2390;SDS011;22957;50.824;4.360;2023-05-19T07:53:19;13.70;;;7.50;;
2390;SDS011;22957;50.824;4.360;2023-05-19T07:55:46;17.07;;;8.53;;
2390;SDS011;22957;50.824;4.360;2023-05-19T07:58:12;23.57;;;9.83;;
2390;SDS011;22957;50.824;4.360;2023-05-19T08:00:38;16.60;;;6.40;;
2390;SDS011;22957;50.824;4.360;2023-05-19T08:03:07;14.90;;;8.20;;
2390;SDS011;22957;50.824;4.360;2023-05-19T08:05:33;14.50;;;6.57;;
2390;SDS011;22957;50.824;4.360;2023-05-19T08:07:59;14.13;;;7.90;;
2390;SDS011;22957;50.824;4.360;2023-05-19T08:10:25;13.50;;;6.50;;
2390;SDS011;22957;50.824;4.360;2023-05-19T08:12:51;20.60;;;7.80;;
2390;SDS011;22957;50.824;4.360;2023-05-19T08:15:17;12.53;;;5.93;;
2390;SDS011;22957;50.824;4.360;2023-05-19T08:17:43;15.60;;;7.20;;
2390;SDS011;22957;50.824;4.360;2023-05-19T08:20:09;12.50;;;7.83;;
2390;SDS011;22957;50.824;4.360;2023-05-19T08:22:36;13.10;;;7.90;;
2390;SDS011;22957;50.824;4.360;2023-05-19T08:25:02;13.30;;;6.60;;
2390;SDS011;22957;50.824;4.360;2023-05-19T08:27:29;8.10;;;5.20;;
2390;SDS011;22957;50.824;4.360;2023-05-19T08:29:54;9.50;;;6.13;;
2390;SDS011;22957;50.824;4.360;2023-05-19T08:32:21;12.73;;;6.90;;
2390;SDS011;22957;50.824;4.360;2023-05-19T08:34:46;11.73;;;5.30;;
2390;SDS011;22957;50.824;4.360;2023-05-19T08:37:12;11.47;;;5.47;;
2390;SDS011;22957;50.824;4.360;2023-05-19T08:39:38;12.67;;;5.53;;
2390;SDS011;22957;50.824;4.360;2023-05-19T08:42:04;19.43;;;5.03;;
2390;SDS011;22957;50.824;4.360;2023-05-19T08:44:31;12.43;;;4.93;;
2390;SDS011;22957;50.824;4.360;2023-05-19T08:46:59;9.70;;;4.17;;
2390;SDS011;22957;50.824;4.360;2023-05-19T08:49:27;9.90;;;4.83;;
2390;SDS011;22957;50.824;4.360;2023-05-19T08:57:54;7.43;;;4.07;;
2390;SDS011;22957;50.824;4.360;2023-05-19T09:00:20;12.93;;;4.17;;
2390;SDS011;22957;50.824;4.360;2023-05-19T09:02:50;15.77;;;6.37;;
2390;SDS011;22957;50.824;4.360;2023-05-19T09:05:17;10.70;;;5.00;;
2390;SDS011;22957;50.824;4.360;2023-05-19T09:07:44;7.70;;;4.20;;
2390;SDS011;22957;50.824;4.360;2023-05-19T09:10:10;7.57;;;3.70;;
2390;SDS011;22957;50.824;4.360;2023-05-19T09:12:43;10.63;;;3.83;;
2390;SDS011;22957;50.824;4.360;2023-05-19T09:15:09;9.20;;;4.30;;
2390;SDS011;22957;50.824;4.360;2023-05-19T09:17:36;9.60;;;4.00;;
2390;SDS011;22957;50.824;4.360;2023-05-19T09:20:04;7.07;;;3.67;;
2390;SDS011;22957;50.824;4.360;2023-05-19T09:22:43;9.40;;;3.97;;
2390;SDS011;22957;50.824;4.360;2023-05-19T09:25:44;7.00;;;3.43;;
2390;SDS011;22957;50.824;4.360;2023-05-19T09:28:13;9.07;;;3.70;;
2390;SDS011;22957;50.824;4.360;2023-05-19T09:30:46;6.77;;;3.10;;
2390;SDS011;22957;50.824;4.360;2023-05-19T09:33:15;5.50;;;1.87;;
2390;SDS011;22957;50.824;4.360;2023-05-19T09:35:46;5.80;;;2.63;;
2390;SDS011;22957;50.824;4.360;2023-05-19T09:38:16;9.80;;;2.63;;
2390;SDS011;22957;50.824;4.360;2023-05-19T09:40:42;6.50;;;2.40;;
2390;SDS011;22957;50.824;4.360;2023-05-19T09:43:08;8.23;;;3.00;;
2390;SDS011;22957;50.824;4.360;2023-05-19T09:45:34;10.33;;;3.40;;
2390;SDS011;22957;50.824;4.360;2023-05-19T09:48:03;11.23;;;3.77;;
2390;SDS011;22957;50.824;4.360;2023-05-19T09:50:30;7.57;;;2.13;;
2390;SDS011;22957;50.824;4.360;2023-05-19T09:52:56;5.60;;;2.60;;
2390;SDS011;22957;50.824;4.360;2023-05-19T09:55:24;12.80;;;2.37;;
2390;SDS011;22957;50.824;4.360;2023-05-19T09:57:51;8.37;;;2.47;;
2390;SDS011;22957;50.824;4.360;2023-05-19T10:00:20;5.30;;;1.80;;
2390;SDS011;22957;50.824;4.360;2023-05-19T10:02:47;9.73;;;2.47;;
2390;SDS011;22957;50.824;4.360;2023-05-19T10:05:15;9.10;;;3.13;;
2390;SDS011;22957;50.824;4.360;2023-05-19T10:07:44;4.33;;;2.00;;
2390;SDS011;22957;50.824;4.360;2023-05-19T10:10:13;8.40;;;2.50;;
2390;SDS011;22957;50.824;4.360;2023-05-19T10:12:39;10.93;;;2.50;;
2390;SDS011;22957;50.824;4.360;2023-05-19T10:15:09;7.43;;;2.00;;
2390;SDS011;22957;50.824;4.360;2023-05-19T10:17:39;9.93;;;2.10;;
2390;SDS011;22957;50.824;4.360;2023-05-19T10:20:07;5.67;;;2.20;;
2390;SDS011;22957;50.824;4.360;2023-05-19T10:22:33;6.17;;;2.10;;
2390;SDS011;22957;50.824;4.360;2023-05-19T10:24:59;22.67;;;6.97;;
2390;SDS011;22957;50.824;4.360;2023-05-19T10:27:24;5.97;;;2.20;;
2390;SDS011;22957;50.824;4.360;2023-05-19T10:29:52;10.10;;;2.73;;
2390;SDS011;22957;50.824;4.360;2023-05-19T10:32:22;6.20;;;2.20;;
2390;SDS011;22957;50.824;4.360;2023-05-19T10:37:56;5.50;;;2.47;;
2390;SDS011;22957;50.824;4.360;2023-05-19T10:45:26;9.40;;;2.50;;
2390;SDS011;22957;50.824;4.360;2023-05-19T10:47:54;6.60;;;2.70;;
2390;SDS011;22957;50.824;4.360;2023-05-19T10:50:20;4.77;;;2.60;;
2390;SDS011;22957;50.824;4.360;2023-05-19T10:52:51;10.47;;;2.83;;
2390;SDS011;22957;50.824;4.360;2023-05-19T10:58:13;12.10;;;2.70;;
2390;SDS011;22957;50.824;4.360;2023-05-19T11:00:39;12.23;;;2.37;;
2390;SDS011;22957;50.824;4.360;2023-05-19T11:03:12;8.30;;;3.20;;
2390;SDS011;22957;50.824;4.360;2023-05-19T11:05:42;8.43;;;3.47;;
2390;SDS011;22957;50.824;4.360;2023-05-19T11:08:10;12.37;;;3.50;;
2390;SDS011;22957;50.824;4.360;2023-05-19T11:10:36;7.80;;;2.80;;
2390;SDS011;22957;50.824;4.360;2023-05-19T11:13:03;8.70;;;2.90;;
2390;SDS011;22957;50.824;4.360;2023-05-19T11:15:32;5.83;;;2.70;;
2390;SDS011;22957;50.824;4.360;2023-05-19T11:18:00;8.20;;;3.07;;
2390;SDS011;22957;50.824;4.360;2023-05-19T11:20:26;9.57;;;3.00;;
2390;SDS011;22957;50.824;4.360;2023-05-19T11:23:05;7.50;;;3.10;;
2390;SDS011;22957;50.824;4.360;2023-05-19T11:28:15;6.17;;;2.33;;
2390;SDS011;22957;50.824;4.360;2023-05-19T11:30:43;9.07;;;2.80;;
2390;SDS011;22957;50.824;4.360;2023-05-19T11:33:10;9.87;;;2.80;;
2390;SDS011;22957;50.824;4.360;2023-05-19T11:35:37;14.80;;;3.40;;
2390;SDS011;22957;50.824;4.360;2023-05-19T11:38:04;8.63;;;3.03;;
2390;SDS011;22957;50.824;4.360;2023-05-19T11:40:31;8.40;;;2.90;;
2390;SDS011;22957;50.824;4.360;2023-05-19T11:42:57;8.20;;;3.40;;
2390;SDS011;22957;50.824;4.360;2023-05-19T11:45:26;4.50;;;2.80;;
2390;SDS011;22957;50.824;4.360;2023-05-19T11:47:56;5.97;;;2.37;;
2390;SDS011;22957;50.824;4.360;2023-05-19T11:50:23;10.00;;;2.73;;
2390;SDS011;22957;50.824;4.360;2023-05-19T11:52:50;7.53;;;3.43;;
2390;SDS011;22957;50.824;4.360;2023-05-19T11:55:19;11.40;;;4.20;;
2390;SDS011;22957;50.824;4.360;2023-05-19T12:00:26;8.10;;;3.20;;
2390;SDS011;22957;50.824;4.360;2023-05-19T12:02:52;8.40;;;2.50;;
2390;SDS011;22957;50.824;4.360;2023-05-19T12:05:22;6.33;;;2.77;;
2390;SDS011;22957;50.824;4.360;2023-05-19T12:07:49;7.17;;;2.50;;
2390;SDS011;22957;50.824;4.360;2023-05-19T12:12:48;5.67;;;2.50;;
2390;SDS011;22957;50.824;4.360;2023-05-19T12:15:17;10.63;;;3.03;;
2390;SDS011;22957;50.824;4.360;2023-05-19T12:17:45;8.13;;;2.77;;
2390;SDS011;22957;50.824;4.360;2023-05-19T12:20:13;6.63;;;2.90;;
2390;SDS011;22957;50.824;4.360;2023-05-19T12:22:38;6.03;;;2.60;;
2390;SDS011;22957;50.824;4.360;2023-05-19T12:25:04;9.20;;;2.80;;
2390;SDS011;22957;50.824;4.360;2023-05-19T12:27:33;7.73;;;2.60;;
2390;SDS011;22957;50.824;4.360;2023-05-19T12:30:02;6.40;;;2.70;;
2390;SDS011;22957;50.824;4.360;2023-05-19T12:32:28;6.70;;;3.00;;
2390;SDS011;22957;50.824;4.360;2023-05-19T12:34:57;9.93;;;2.87;;
2390;SDS011;22957;50.824;4.360;2023-05-19T12:37:25;7.40;;;2.60;;
2390;SDS011;22957;50.824;4.360;2023-05-19T12:39:52;4.30;;;1.93;;
2390;SDS011;22957;50.824;4.360;2023-05-19T12:42:19;5.80;;;1.90;;
2390;SDS011;22957;50.824;4.360;2023-05-19T12:44:48;7.57;;;2.60;;
2390;SDS011;22957;50.824;4.360;2023-05-19T12:47:16;5.63;;;1.80;;
2390;SDS011;22957;50.824;4.360;2023-05-19T12:52:44;5.40;;;2.37;;
2390;SDS011;22957;50.824;4.360;2023-05-19T12:55:10;9.90;;;2.80;;
2390;SDS011;22957;50.824;4.360;2023-05-19T12:57:38;8.77;;;1.90;;
2390;SDS011;22957;50.824;4.360;2023-05-19T13:00:06;11.13;;;2.40;;
2390;SDS011;22957;50.824;4.360;2023-05-19T13:05:29;4.57;;;1.97;;
2390;SDS011;22957;50.824;4.360;2023-05-19T13:10:25;4.57;;;1.50;;
2390;SDS011;22957;50.824;4.360;2023-05-19T13:12:52;9.67;;;2.10;;
2390;SDS011;22957;50.824;4.360;2023-05-19T13:15:18;4.40;;;1.73;;
2390;SDS011;22957;50.824;4.360;2023-05-19T13:17:46;3.20;;;1.80;;
2390;SDS011;22957;50.824;4.360;2023-05-19T13:20:12;5.83;;;2.03;;
2390;SDS011;22957;50.824;4.360;2023-05-19T13:22:37;8.13;;;2.10;;
2390;SDS011;22957;50.824;4.360;2023-05-19T13:25:03;6.50;;;2.30;;
2390;SDS011;22957;50.824;4.360;2023-05-19T13:27:29;6.67;;;1.83;;
2390;SDS011;22957;50.824;4.360;2023-05-19T13:29:54;5.27;;;1.97;;
2390;SDS011;22957;50.824;4.360;2023-05-19T13:32:20;3.97;;;1.77;;
2390;SDS011;22957;50.824;4.360;2023-05-19T13:34:46;3.00;;;1.73;;
2390;SDS011;22957;50.824;4.360;2023-05-19T13:37:11;4.43;;;1.50;;
2390;SDS011;22957;50.824;4.360;2023-05-19T13:39:37;7.17;;;2.37;;
2390;SDS011;22957;50.824;4.360;2023-05-19T13:42:04;7.37;;;2.07;;
2390;SDS011;22957;50.824;4.360;2023-05-19T13:44:30;7.53;;;2.47;;
2390;SDS011;22957;50.824;4.360;2023-05-19T13:46:56;16.23;;;2.13;;
2390;SDS011;22957;50.824;4.360;2023-05-19T13:49:22;11.73;;;2.27;;
2390;SDS011;22957;50.824;4.360;2023-05-19T13:51:48;4.80;;;1.50;;
2390;SDS011;22957;50.824;4.360;2023-05-19T13:54:14;9.80;;;2.60;;
2390;SDS011;22957;50.824;4.360;2023-05-19T13:56:40;4.97;;;2.10;;
2390;SDS011;22957;50.824;4.360;2023-05-19T13:59:07;7.07;;;2.00;;
2390;SDS011;22957;50.824;4.360;2023-05-19T14:01:32;4.33;;;1.90;;
2390;SDS011;22957;50.824;4.360;2023-05-19T14:03:58;5.13;;;2.33;;
2390;SDS011;22957;50.824;4.360;2023-05-19T14:06:23;4.77;;;2.20;;
2390;SDS011;22957;50.824;4.360;2023-05-19T14:08:49;9.70;;;2.27;;
2390;SDS011;22957;50.824;4.360;2023-05-19T14:11:20;6.80;;;2.60;;
2390;SDS011;22957;50.824;4.360;2023-05-19T14:13:49;8.93;;;2.13;;
2390;SDS011;22957;50.824;4.360;2023-05-19T14:16:15;13.93;;;2.40;;
2390;SDS011;22957;50.824;4.360;2023-05-19T14:18:41;5.17;;;1.83;;
2390;SDS011;22957;50.824;4.360;2023-05-19T14:21:07;6.47;;;2.07;;
2390;SDS011;22957;50.824;4.360;2023-05-19T14:23:33;5.80;;;2.40;;
2390;SDS011;22957;50.824;4.360;2023-05-19T14:25:58;8.10;;;1.90;;
2390;SDS011;22957;50.824;4.360;2023-05-19T14:28:24;6.63;;;2.40;;
2390;SDS011;22957;50.824;4.360;2023-05-19T14:30:50;5.23;;;2.63;;
2390;SDS011;22957;50.824;4.360;2023-05-19T14:33:16;7.03;;;2.70;;
2390;SDS011;22957;50.824;4.360;2023-05-19T14:35:43;5.00;;;2.80;;
2390;SDS011;22957;50.824;4.360;2023-05-19T14:38:09;5.50;;;1.83;;
2390;SDS011;22957;50.824;4.360;2023-05-19T14:40:38;6.50;;;2.03;;
2390;SDS011;22957;50.824;4.360;2023-05-19T14:43:05;6.93;;;1.73;;
2390;SDS011;22957;50.824;4.360;2023-05-19T14:45:34;6.57;;;1.90;;
2390;SDS011;22957;50.824;4.360;2023-05-19T14:47:59;6.37;;;2.20;;
2390;SDS011;22957;50.824;4.360;2023-05-19T14:50:28;5.50;;;2.17;;
2390;SDS011;22957;50.824;4.360;2023-05-19T14:52:53;7.33;;;2.60;;
2390;SDS011;22957;50.824;4.360;2023-05-19T14:55:20;6.77;;;2.37;;
2390;SDS011;22957;50.824;4.360;2023-05-19T14:57:45;6.53;;;2.20;;
2390;SDS011;22957;50.824;4.360;2023-05-19T15:00:11;6.80;;;2.20;;
2390;SDS011;22957;50.824;4.360;2023-05-19T15:02:37;5.10;;;2.67;;
2390;SDS011;22957;50.824;4.360;2023-05-19T15:05:03;5.23;;;1.97;;
2390;SDS011;22957;50.824;4.360;2023-05-19T15:07:29;7.43;;;2.07;;
2390;SDS011;22957;50.824;4.360;2023-05-19T15:09:54;5.20;;;1.80;;
2390;SDS011;22957;50.824;4.360;2023-05-19T15:12:20;10.10;;;2.23;;
2390;SDS011;22957;50.824;4.360;2023-05-19T15:14:46;5.70;;;1.77;;
2390;SDS011;22957;50.824;4.360;2023-05-19T15:17:12;5.00;;;1.90;;
2390;SDS011;22957;50.824;4.360;2023-05-19T15:19:38;9.83;;;2.00;;
2390;SDS011;22957;50.824;4.360;2023-05-19T15:22:06;7.23;;;2.07;;
2390;SDS011;22957;50.824;4.360;2023-05-19T15:24:31;5.87;;;1.93;;
2390;SDS011;22957;50.824;4.360;2023-05-19T15:26:57;8.00;;;1.80;;
2390;SDS011;22957;50.824;4.360;2023-05-19T15:29:23;6.37;;;2.47;;
2390;SDS011;22957;50.824;4.360;2023-05-19T15:31:49;11.30;;;1.93;;
2390;SDS011;22957;50.824;4.360;2023-05-19T15:34:18;8.10;;;2.47;;
2390;SDS011;22957;50.824;4.360;2023-05-19T15:36:44;3.90;;;2.13;;
2390;SDS011;22957;50.824;4.360;2023-05-19T15:39:10;9.43;;;2.00;;
2390;SDS011;22957;50.824;4.360;2023-05-19T15:41:36;8.20;;;2.90;;
2390;SDS011;22957;50.824;4.360;2023-05-19T15:44:01;5.67;;;1.77;;
2390;SDS011;22957;50.824;4.360;2023-05-19T15:46:28;5.00;;;2.23;;